sensor_id;sensor_type;location;lat;lon;timestamp;P1;durP1;ratioP1;P2;durP2;ratioP2
11222;SDS011;5668;52.012;8.724;2024-03-08T00:01:24;19.47;;;16.40;;
11222;SDS011;5668;52.012;8.724;2024-03-08T00:03:53;19.83;;;17.17;;
11222;SDS011;5668;52.012;8.724;2024-03-08T00:06:20;18.03;;;15.67;;
11222;SDS011;5668;52.012;8.724;2024-03-08T00:08:47;18.33;;;16.10;;
11222;SDS011;5668;52.012;8.724;2024-03-08T00:11:16;20.17;;;16.13;;
11222;SDS011;5668;52.012;8.724;2024-03-08T00:13:43;20.43;;;16.17;;
11222;SDS011;5668;52.012;8.724;2024-03-08T00:16:11;20.00;;;17.53;;
11222;SDS011;5668;52.012;8.724;2024-03-08T00:18:39;20.40;;;16.73;;
11222;SDS011;5668;52.012;8.724;2024-03-08T00:21:08;19.40;;;16.87;;
11222;SDS011;5668;52.012;8.724;2024-03-08T00:23:35;20.43;;;16.90;;
11222;SDS011;5668;52.012;8.724;2024-03-08T00:26:02;19.97;;;17.50;;
11222;SDS011;5668;52.012;8.724;2024-03-08T00:28:30;20.73;;;17.13;;
11222;SDS011;5668;52.012;8.724;2024-03-08T00:30:59;21.60;;;16.90;;
11222;SDS011;5668;52.012;8.724;2024-03-08T00:33:26;19.37;;;16.83;;
11222;SDS011;5668;52.012;8.724;2024-03-08T00:35:53;20.80;;;17.07;;
11222;SDS011;5668;52.012;8.724;2024-03-08T00:38:22;21.30;;;16.77;;
11222;SDS011;5668;52.012;8.724;2024-03-08T00:40:49;19.77;;;16.10;;
11222;SDS011;5668;52.012;8.724;2024-03-08T00:43:16;19.30;;;15.77;;
11222;SDS011;5668;52.012;8.724;2024-03-08T00:45:43;21.93;;;17.23;;
11222;SDS011;5668;52.012;8.724;2024-03-08T00:48:11;18.77;;;16.23;;
11222;SDS011;5668;52.012;8.724;2024-03-08T00:50:38;20.90;;;17.23;;
11222;SDS011;5668;52.012;8.724;2024-03-08T00:53:05;18.90;;;16.00;;
11222;SDS011;5668;52.012;8.724;2024-03-08T00:55:34;19.77;;;16.50;;
11222;SDS011;5668;52.012;8.724;2024-03-08T00:58:01;18.47;;;16.07;;
11222;SDS011;5668;52.012;8.724;2024-03-08T01:00:28;21.63;;;16.97;;
11222;SDS011;5668;52.012;8.724;2024-03-08T01:02:56;19.13;;;16.67;;
11222;SDS011;5668;52.012;8.724;2024-03-08T01:05:25;21.13;;;16.90;;
11222;SDS011;5668;52.012;8.724;2024-03-08T01:07:52;18.53;;;16.53;;
11222;SDS011;5668;52.012;8.724;2024-03-08T01:10:19;19.77;;;16.03;;
11222;SDS011;5668;52.012;8.724;2024-03-08T01:12:49;21.77;;;17.10;;
11222;SDS011;5668;52.012;8.724;2024-03-08T01:15:16;21.40;;;17.33;;
11222;SDS011;5668;52.012;8.724;2024-03-08T01:17:44;17.73;;;15.90;;
11222;SDS011;5668;52.012;8.724;2024-03-08T01:20:12;20.93;;;17.30;;
11222;SDS011;5668;52.012;8.724;2024-03-08T01:22:40;22.70;;;18.03;;
11222;SDS011;5668;52.012;8.724;2024-03-08T01:25:07;22.37;;;17.93;;
11222;SDS011;5668;52.012;8.724;2024-03-08T01:27:35;19.53;;;17.30;;
11222;SDS011;5668;52.012;8.724;2024-03-08T01:30:04;22.40;;;17.97;;
11222;SDS011;5668;52.012;8.724;2024-03-08T01:32:34;22.97;;;18.27;;
11222;SDS011;5668;52.012;8.724;2024-03-08T01:35:01;23.80;;;18.37;;
11222;SDS011;5668;52.012;8.724;2024-03-08T01:37:29;22.30;;;18.07;;
11222;SDS011;5668;52.012;8.724;2024-03-08T01:39:56;20.23;;;17.60;;
11222;SDS011;5668;52.012;8.724;2024-03-08T01:42:23;22.03;;;16.73;;
11222;SDS011;5668;52.012;8.724;2024-03-08T01:44:51;19.90;;;17.00;;
11222;SDS011;5668;52.012;8.724;2024-03-08T01:47:21;21.30;;;18.07;;
11222;SDS011;5668;52.012;8.724;2024-03-08T01:49:48;20.40;;;17.07;;
11222;SDS011;5668;52.012;8.724;2024-03-08T01:52:16;19.07;;;16.77;;
11222;SDS011;5668;52.012;8.724;2024-03-08T01:54:47;21.57;;;17.07;;
11222;SDS011;5668;52.012;8.724;2024-03-08T01:57:15;19.93;;;16.90;;
11222;SDS011;5668;52.012;8.724;2024-03-08T01:59:42;23.23;;;17.90;;
11222;SDS011;5668;52.012;8.724;2024-03-08T02:02:09;19.63;;;17.53;;
11222;SDS011;5668;52.012;8.724;2024-03-08T02:04:42;20.13;;;17.10;;
11222;SDS011;5668;52.012;8.724;2024-03-08T02:07:10;21.33;;;16.57;;
11222;SDS011;5668;52.012;8.724;2024-03-08T02:09:37;19.50;;;17.43;;
11222;SDS011;5668;52.012;8.724;2024-03-08T02:12:05;20.70;;;16.90;;
11222;SDS011;5668;52.012;8.724;2024-03-08T02:14:33;21.57;;;17.20;;
11222;SDS011;5668;52.012;8.724;2024-03-08T02:17:01;21.60;;;17.33;;
11222;SDS011;5668;52.012;8.724;2024-03-08T02:19:30;20.93;;;17.00;;
11222;SDS011;5668;52.012;8.724;2024-03-08T02:21:59;21.20;;;17.13;;
11222;SDS011;5668;52.012;8.724;2024-03-08T02:24:29;20.00;;;17.23;;
11222;SDS011;5668;52.012;8.724;2024-03-08T02:26:57;20.10;;;17.67;;
11222;SDS011;5668;52.012;8.724;2024-03-08T02:29:24;20.50;;;17.57;;
11222;SDS011;5668;52.012;8.724;2024-03-08T02:31:51;24.37;;;17.10;;
11222;SDS011;5668;52.012;8.724;2024-03-08T02:34:20;20.67;;;17.50;;
11222;SDS011;5668;52.012;8.724;2024-03-08T02:36:47;18.83;;;16.83;;
11222;SDS011;5668;52.012;8.724;2024-03-08T02:39:16;20.50;;;17.57;;
11222;SDS011;5668;52.012;8.724;2024-03-08T02:41:44;19.60;;;16.73;;
11222;SDS011;5668;52.012;8.724;2024-03-08T02:44:12;20.90;;;17.23;;
11222;SDS011;5668;52.012;8.724;2024-03-08T02:46:40;20.93;;;17.67;;
11222;SDS011;5668;52.012;8.724;2024-03-08T02:49:07;19.77;;;16.93;;
11222;SDS011;5668;52.012;8.724;2024-03-08T02:51:34;22.20;;;16.70;;
11222;SDS011;5668;52.012;8.724;2024-03-08T02:54:01;23.63;;;17.97;;
11222;SDS011;5668;52.012;8.724;2024-03-08T02:56:31;20.57;;;17.70;;
11222;SDS011;5668;52.012;8.724;2024-03-08T02:59:00;22.43;;;18.13;;
11222;SDS011;5668;52.012;8.724;2024-03-08T03:01:27;24.83;;;19.30;;
11222;SDS011;5668;52.012;8.724;2024-03-08T03:03:55;24.00;;;18.30;;
11222;SDS011;5668;52.012;8.724;2024-03-08T03:06:23;23.77;;;18.63;;
11222;SDS011;5668;52.012;8.724;2024-03-08T03:08:51;20.47;;;18.27;;
11222;SDS011;5668;52.012;8.724;2024-03-08T03:11:18;20.70;;;16.97;;
11222;SDS011;5668;52.012;8.724;2024-03-08T03:13:48;22.73;;;18.33;;
11222;SDS011;5668;52.012;8.724;2024-03-08T03:16:18;21.77;;;18.30;;
11222;SDS011;5668;52.012;8.724;2024-03-08T03:18:46;21.90;;;17.67;;
11222;SDS011;5668;52.012;8.724;2024-03-08T03:21:13;21.20;;;18.40;;
11222;SDS011;5668;52.012;8.724;2024-03-08T03:23:40;22.50;;;18.77;;
11222;SDS011;5668;52.012;8.724;2024-03-08T03:26:08;25.57;;;19.93;;
11222;SDS011;5668;52.012;8.724;2024-03-08T03:28:37;24.33;;;19.40;;
11222;SDS011;5668;52.012;8.724;2024-03-08T03:31:06;22.93;;;18.97;;
11222;SDS011;5668;52.012;8.724;2024-03-08T03:33:39;25.00;;;20.23;;
11222;SDS011;5668;52.012;8.724;2024-03-08T03:36:06;23.17;;;19.03;;
11222;SDS011;5668;52.012;8.724;2024-03-08T03:38:35;24.77;;;19.60;;
11222;SDS011;5668;52.012;8.724;2024-03-08T03:41:02;24.67;;;19.17;;
11222;SDS011;5668;52.012;8.724;2024-03-08T03:43:35;26.03;;;19.93;;
11222;SDS011;5668;52.012;8.724;2024-03-08T03:46:06;26.10;;;19.90;;
11222;SDS011;5668;52.012;8.724;2024-03-08T03:48:35;27.40;;;20.17;;
11222;SDS011;5668;52.012;8.724;2024-03-08T03:51:02;24.53;;;19.63;;
11222;SDS011;5668;52.012;8.724;2024-03-08T03:53:30;28.70;;;20.47;;
11222;SDS011;5668;52.012;8.724;2024-03-08T03:55:57;24.60;;;20.03;;
11222;SDS011;5668;52.012;8.724;2024-03-08T03:58:24;26.90;;;19.80;;
11222;SDS011;5668;52.012;8.724;2024-03-08T04:00:53;25.13;;;20.23;;
11222;SDS011;5668;52.012;8.724;2024-03-08T04:03:22;24.47;;;20.57;;
11222;SDS011;5668;52.012;8.724;2024-03-08T04:05:49;24.70;;;19.70;;
11222;SDS011;5668;52.012;8.724;2024-03-08T04:08:17;25.80;;;20.03;;
11222;SDS011;5668;52.012;8.724;2024-03-08T04:10:44;27.10;;;20.33;;
11222;SDS011;5668;52.012;8.724;2024-03-08T04:13:11;24.70;;;19.47;;
11222;SDS011;5668;52.012;8.724;2024-03-08T04:15:40;23.33;;;20.07;;
11222;SDS011;5668;52.012;8.724;2024-03-08T04:18:09;25.57;;;21.23;;
11222;SDS011;5668;52.012;8.724;2024-03-08T04:20:37;27.40;;;19.80;;
11222;SDS011;5668;52.012;8.724;2024-03-08T04:23:05;23.93;;;19.73;;
11222;SDS011;5668;52.012;8.724;2024-03-08T04:25:32;26.33;;;20.73;;
11222;SDS011;5668;52.012;8.724;2024-03-08T04:27:59;28.03;;;21.37;;
11222;SDS011;5668;52.012;8.724;2024-03-08T04:30:26;28.10;;;22.27;;
11222;SDS011;5668;52.012;8.724;2024-03-08T04:32:55;27.73;;;21.10;;
11222;SDS011;5668;52.012;8.724;2024-03-08T04:35:22;24.03;;;19.97;;
11222;SDS011;5668;52.012;8.724;2024-03-08T04:37:52;27.83;;;21.73;;
11222;SDS011;5668;52.012;8.724;2024-03-08T04:40:19;26.47;;;21.33;;
11222;SDS011;5668;52.012;8.724;2024-03-08T04:42:47;27.20;;;20.77;;
11222;SDS011;5668;52.012;8.724;2024-03-08T04:45:16;25.60;;;19.70;;
11222;SDS011;5668;52.012;8.724;2024-03-08T04:47:43;25.97;;;19.97;;
11222;SDS011;5668;52.012;8.724;2024-03-08T04:50:11;24.77;;;20.07;;
11222;SDS011;5668;52.012;8.724;2024-03-08T04:52:39;26.70;;;20.63;;
11222;SDS011;5668;52.012;8.724;2024-03-08T04:55:08;24.97;;;19.77;;
11222;SDS011;5668;52.012;8.724;2024-03-08T04:57:35;27.47;;;21.57;;
11222;SDS011;5668;52.012;8.724;2024-03-08T05:00:02;25.07;;;20.60;;
11222;SDS011;5668;52.012;8.724;2024-03-08T05:02:35;27.37;;;21.30;;
11222;SDS011;5668;52.012;8.724;2024-03-08T05:05:04;27.47;;;21.60;;
11222;SDS011;5668;52.012;8.724;2024-03-08T05:07:32;26.87;;;22.07;;
11222;SDS011;5668;52.012;8.724;2024-03-08T05:10:00;25.20;;;21.30;;
11222;SDS011;5668;52.012;8.724;2024-03-08T05:12:29;28.70;;;21.13;;
11222;SDS011;5668;52.012;8.724;2024-03-08T05:14:57;27.73;;;21.07;;
11222;SDS011;5668;52.012;8.724;2024-03-08T05:17:24;26.77;;;22.03;;
11222;SDS011;5668;52.012;8.724;2024-03-08T05:19:51;27.73;;;21.80;;
11222;SDS011;5668;52.012;8.724;2024-03-08T05:22:18;27.80;;;22.00;;
11222;SDS011;5668;52.012;8.724;2024-03-08T05:24:45;25.30;;;20.93;;
11222;SDS011;5668;52.012;8.724;2024-03-08T05:27:13;28.97;;;21.10;;
11222;SDS011;5668;52.012;8.724;2024-03-08T05:29:41;26.67;;;21.00;;
11222;SDS011;5668;52.012;8.724;2024-03-08T05:32:08;28.70;;;22.27;;
11222;SDS011;5668;52.012;8.724;2024-03-08T05:34:37;29.67;;;22.30;;
11222;SDS011;5668;52.012;8.724;2024-03-08T05:37:04;27.77;;;21.90;;
11222;SDS011;5668;52.012;8.724;2024-03-08T05:39:32;28.07;;;22.33;;
11222;SDS011;5668;52.012;8.724;2024-03-08T05:41:59;30.30;;;21.47;;
11222;SDS011;5668;52.012;8.724;2024-03-08T05:44:26;27.10;;;21.33;;
11222;SDS011;5668;52.012;8.724;2024-03-08T05:46:57;27.20;;;20.90;;
11222;SDS011;5668;52.012;8.724;2024-03-08T05:49:24;26.93;;;21.27;;
11222;SDS011;5668;52.012;8.724;2024-03-08T05:51:51;27.43;;;21.10;;
11222;SDS011;5668;52.012;8.724;2024-03-08T05:54:19;27.03;;;21.00;;
11222;SDS011;5668;52.012;8.724;2024-03-08T05:56:49;26.00;;;20.10;;
11222;SDS011;5668;52.012;8.724;2024-03-08T05:59:17;25.83;;;20.10;;
11222;SDS011;5668;52.012;8.724;2024-03-08T06:01:45;23.93;;;20.07;;
11222;SDS011;5668;52.012;8.724;2024-03-08T06:04:13;26.27;;;21.70;;
11222;SDS011;5668;52.012;8.724;2024-03-08T06:06:43;25.27;;;20.77;;
11222;SDS011;5668;52.012;8.724;2024-03-08T06:09:10;27.87;;;20.20;;
11222;SDS011;5668;52.012;8.724;2024-03-08T06:11:41;27.10;;;20.67;;
11222;SDS011;5668;52.012;8.724;2024-03-08T06:14:09;29.73;;;21.10;;
11222;SDS011;5668;52.012;8.724;2024-03-08T06:16:36;27.07;;;20.57;;
11222;SDS011;5668;52.012;8.724;2024-03-08T06:19:03;27.53;;;21.13;;
11222;SDS011;5668;52.012;8.724;2024-03-08T06:21:32;26.17;;;21.00;;
11222;SDS011;5668;52.012;8.724;2024-03-08T06:23:59;24.33;;;20.30;;
11222;SDS011;5668;52.012;8.724;2024-03-08T06:26:26;25.80;;;19.90;;
11222;SDS011;5668;52.012;8.724;2024-03-08T06:28:54;27.30;;;21.20;;
11222;SDS011;5668;52.012;8.724;2024-03-08T06:31:21;27.87;;;21.47;;
11222;SDS011;5668;52.012;8.724;2024-03-08T06:33:48;24.87;;;20.33;;
11222;SDS011;5668;52.012;8.724;2024-03-08T06:36:16;28.00;;;21.33;;
11222;SDS011;5668;52.012;8.724;2024-03-08T06:38:47;24.63;;;20.57;;
11222;SDS011;5668;52.012;8.724;2024-03-08T06:41:15;26.07;;;20.63;;
11222;SDS011;5668;52.012;8.724;2024-03-08T06:43:43;26.40;;;20.83;;
11222;SDS011;5668;52.012;8.724;2024-03-08T06:46:10;27.50;;;21.03;;
11222;SDS011;5668;52.012;8.724;2024-03-08T06:48:38;25.77;;;20.80;;
11222;SDS011;5668;52.012;8.724;2024-03-08T06:51:06;28.20;;;21.17;;
11222;SDS011;5668;52.012;8.724;2024-03-08T06:53:33;27.73;;;21.63;;
11222;SDS011;5668;52.012;8.724;2024-03-08T06:56:02;25.70;;;20.60;;
11222;SDS011;5668;52.012;8.724;2024-03-08T06:58:30;24.83;;;20.57;;
11222;SDS011;5668;52.012;8.724;2024-03-08T07:00:57;26.43;;;21.23;;
11222;SDS011;5668;52.012;8.724;2024-03-08T07:03:26;28.47;;;21.67;;
11222;SDS011;5668;52.012;8.724;2024-03-08T07:05:54;27.63;;;21.27;;
11222;SDS011;5668;52.012;8.724;2024-03-08T07:08:23;28.80;;;22.53;;
11222;SDS011;5668;52.012;8.724;2024-03-08T07:10:51;30.63;;;23.40;;
11222;SDS011;5668;52.012;8.724;2024-03-08T07:13:20;29.17;;;22.07;;
11222;SDS011;5668;52.012;8.724;2024-03-08T07:15:47;29.57;;;22.17;;
11222;SDS011;5668;52.012;8.724;2024-03-08T07:18:15;28.17;;;22.57;;
11222;SDS011;5668;52.012;8.724;2024-03-08T07:20:42;28.53;;;22.17;;
11222;SDS011;5668;52.012;8.724;2024-03-08T07:23:10;26.30;;;21.27;;
11222;SDS011;5668;52.012;8.724;2024-03-08T07:25:57;25.60;;;21.73;;
11222;SDS011;5668;52.012;8.724;2024-03-08T07:28:27;30.33;;;21.93;;
11222;SDS011;5668;52.012;8.724;2024-03-08T07:30:55;27.63;;;22.43;;
11222;SDS011;5668;52.012;8.724;2024-03-08T07:33:37;28.37;;;22.07;;
11222;SDS011;5668;52.012;8.724;2024-03-08T07:36:04;33.30;;;22.73;;
11222;SDS011;5668;52.012;8.724;2024-03-08T07:38:32;29.97;;;23.00;;
11222;SDS011;5668;52.012;8.724;2024-03-08T07:40:59;27.73;;;21.80;;
11222;SDS011;5668;52.012;8.724;2024-03-08T07:43:28;29.40;;;22.60;;
11222;SDS011;5668;52.012;8.724;2024-03-08T07:45:55;28.97;;;22.40;;
11222;SDS011;5668;52.012;8.724;2024-03-08T07:48:22;32.13;;;23.80;;
11222;SDS011;5668;52.012;8.724;2024-03-08T07:50:49;31.70;;;24.10;;
11222;SDS011;5668;52.012;8.724;2024-03-08T07:53:17;26.60;;;22.03;;
11222;SDS011;5668;52.012;8.724;2024-03-08T07:55:44;29.67;;;23.20;;
11222;SDS011;5668;52.012;8.724;2024-03-08T07:58:11;27.33;;;22.40;;
11222;SDS011;5668;52.012;8.724;2024-03-08T08:00:40;27.07;;;22.07;;
11222;SDS011;5668;52.012;8.724;2024-03-08T08:03:08;30.10;;;23.10;;
11222;SDS011;5668;52.012;8.724;2024-03-08T08:05:35;28.73;;;22.60;;
11222;SDS011;5668;52.012;8.724;2024-03-08T08:08:03;27.63;;;23.03;;
11222;SDS011;5668;52.012;8.724;2024-03-08T08:10:31;31.27;;;23.40;;
11222;SDS011;5668;52.012;8.724;2024-03-08T08:12:58;28.70;;;23.33;;
11222;SDS011;5668;52.012;8.724;2024-03-08T08:15:26;28.13;;;22.17;;
11222;SDS011;5668;52.012;8.724;2024-03-08T08:17:55;30.23;;;23.33;;
11222;SDS011;5668;52.012;8.724;2024-03-08T08:20:22;28.93;;;22.87;;
11222;SDS011;5668;52.012;8.724;2024-03-08T08:22:51;28.60;;;22.53;;
11222;SDS011;5668;52.012;8.724;2024-03-08T08:25:20;32.53;;;23.80;;
11222;SDS011;5668;52.012;8.724;2024-03-08T08:27:49;31.57;;;23.27;;
11222;SDS011;5668;52.012;8.724;2024-03-08T08:30:17;29.83;;;23.93;;
11222;SDS011;5668;52.012;8.724;2024-03-08T08:32:45;33.63;;;23.90;;
11222;SDS011;5668;52.012;8.724;2024-03-08T08:35:14;28.90;;;23.20;;
11222;SDS011;5668;52.012;8.724;2024-03-08T08:37:44;28.87;;;23.40;;
11222;SDS011;5668;52.012;8.724;2024-03-08T08:40:12;30.93;;;23.20;;
11222;SDS011;5668;52.012;8.724;2024-03-08T08:42:42;29.77;;;23.70;;
11222;SDS011;5668;52.012;8.724;2024-03-08T08:45:11;28.57;;;23.10;;
11222;SDS011;5668;52.012;8.724;2024-03-08T08:47:38;28.37;;;23.07;;
11222;SDS011;5668;52.012;8.724;2024-03-08T08:50:08;29.70;;;23.73;;
11222;SDS011;5668;52.012;8.724;2024-03-08T08:52:39;30.77;;;23.90;;
11222;SDS011;5668;52.012;8.724;2024-03-08T08:55:08;29.93;;;23.47;;
11222;SDS011;5668;52.012;8.724;2024-03-08T08:57:39;29.53;;;23.57;;
11222;SDS011;5668;52.012;8.724;2024-03-08T09:00:06;29.70;;;23.30;;
11222;SDS011;5668;52.012;8.724;2024-03-08T09:02:39;27.43;;;22.87;;
11222;SDS011;5668;52.012;8.724;2024-03-08T09:05:07;30.17;;;22.63;;
11222;SDS011;5668;52.012;8.724;2024-03-08T09:07:34;28.07;;;21.73;;
11222;SDS011;5668;52.012;8.724;2024-03-08T09:10:04;27.50;;;22.27;;
11222;SDS011;5668;52.012;8.724;2024-03-08T09:12:35;29.10;;;23.47;;
11222;SDS011;5668;52.012;8.724;2024-03-08T09:15:02;26.67;;;22.57;;
11222;SDS011;5668;52.012;8.724;2024-03-08T09:17:30;29.80;;;22.03;;
11222;SDS011;5668;52.012;8.724;2024-03-08T09:19:58;26.53;;;21.63;;
11222;SDS011;5668;52.012;8.724;2024-03-08T09:22:25;27.00;;;22.03;;
11222;SDS011;5668;52.012;8.724;2024-03-08T09:24:52;27.00;;;22.53;;
11222;SDS011;5668;52.012;8.724;2024-03-08T09:27:21;29.23;;;23.07;;
11222;SDS011;5668;52.012;8.724;2024-03-08T09:29:49;26.27;;;20.77;;
11222;SDS011;5668;52.012;8.724;2024-03-08T09:32:16;26.50;;;21.43;;
11222;SDS011;5668;52.012;8.724;2024-03-08T09:34:43;27.13;;;21.20;;
11222;SDS011;5668;52.012;8.724;2024-03-08T09:37:10;28.10;;;21.83;;
11222;SDS011;5668;52.012;8.724;2024-03-08T09:39:37;26.23;;;20.73;;
11222;SDS011;5668;52.012;8.724;2024-03-08T09:42:05;25.13;;;21.67;;
11222;SDS011;5668;52.012;8.724;2024-03-08T09:44:33;25.93;;;21.17;;
11222;SDS011;5668;52.012;8.724;2024-03-08T09:47:03;26.40;;;20.90;;
11222;SDS011;5668;52.012;8.724;2024-03-08T09:49:32;25.40;;;20.57;;
11222;SDS011;5668;52.012;8.724;2024-03-08T09:51:59;24.47;;;20.67;;
11222;SDS011;5668;52.012;8.724;2024-03-08T09:54:30;24.83;;;20.87;;
11222;SDS011;5668;52.012;8.724;2024-03-08T09:56:57;23.43;;;19.23;;
11222;SDS011;5668;52.012;8.724;2024-03-08T09:59:24;24.33;;;20.00;;
11222;SDS011;5668;52.012;8.724;2024-03-08T10:02:12;23.07;;;20.03;;
11222;SDS011;5668;52.012;8.724;2024-03-08T10:04:41;24.83;;;20.27;;
11222;SDS011;5668;52.012;8.724;2024-03-08T10:07:11;24.37;;;19.97;;
11222;SDS011;5668;52.012;8.724;2024-03-08T10:09:38;22.23;;;19.00;;
11222;SDS011;5668;52.012;8.724;2024-03-08T10:12:07;22.93;;;19.63;;
11222;SDS011;5668;52.012;8.724;2024-03-08T10:14:38;23.57;;;19.70;;
11222;SDS011;5668;52.012;8.724;2024-03-08T10:17:07;23.63;;;18.80;;
11222;SDS011;5668;52.012;8.724;2024-03-08T10:19:35;23.07;;;19.47;;
11222;SDS011;5668;52.012;8.724;2024-03-08T10:22:04;22.80;;;19.17;;
11222;SDS011;5668;52.012;8.724;2024-03-08T10:24:31;24.17;;;18.87;;
11222;SDS011;5668;52.012;8.724;2024-03-08T10:26:59;22.80;;;19.47;;
11222;SDS011;5668;52.012;8.724;2024-03-08T10:29:29;25.93;;;18.93;;
11222;SDS011;5668;52.012;8.724;2024-03-08T10:31:57;21.50;;;18.93;;
11222;SDS011;5668;52.012;8.724;2024-03-08T10:34:24;23.93;;;18.80;;
11222;SDS011;5668;52.012;8.724;2024-03-08T10:36:53;21.27;;;18.80;;
11222;SDS011;5668;52.012;8.724;2024-03-08T10:39:28;21.70;;;18.47;;
11222;SDS011;5668;52.012;8.724;2024-03-08T10:42:02;23.50;;;18.73;;
11222;SDS011;5668;52.012;8.724;2024-03-08T10:44:36;22.57;;;18.57;;
11222;SDS011;5668;52.012;8.724;2024-03-08T10:47:12;20.83;;;17.53;;
11222;SDS011;5668;52.012;8.724;2024-03-08T10:49:49;21.50;;;19.20;;
11222;SDS011;5668;52.012;8.724;2024-03-08T10:52:22;21.50;;;18.43;;
11222;SDS011;5668;52.012;8.724;2024-03-08T10:54:49;22.40;;;18.83;;
11222;SDS011;5668;52.012;8.724;2024-03-08T10:57:19;20.83;;;18.50;;
11222;SDS011;5668;52.012;8.724;2024-03-08T10:59:49;20.03;;;17.60;;
11222;SDS011;5668;52.012;8.724;2024-03-08T11:02:17;22.30;;;18.83;;
11222;SDS011;5668;52.012;8.724;2024-03-08T11:04:46;20.73;;;17.50;;
11222;SDS011;5668;52.012;8.724;2024-03-08T11:07:14;22.10;;;19.10;;
11222;SDS011;5668;52.012;8.724;2024-03-08T11:09:46;20.37;;;18.00;;
11222;SDS011;5668;52.012;8.724;2024-03-08T11:12:24;20.57;;;18.27;;
11222;SDS011;5668;52.012;8.724;2024-03-08T11:14:54;22.40;;;18.40;;
11222;SDS011;5668;52.012;8.724;2024-03-08T11:17:25;22.57;;;19.47;;
11222;SDS011;5668;52.012;8.724;2024-03-08T11:20:08;21.47;;;18.33;;
11222;SDS011;5668;52.012;8.724;2024-03-08T11:22:40;22.17;;;19.00;;
11222;SDS011;5668;52.012;8.724;2024-03-08T11:28:07;22.67;;;18.63;;
11222;SDS011;5668;52.012;8.724;2024-03-08T11:30:41;21.73;;;19.17;;
11222;SDS011;5668;52.012;8.724;2024-03-08T11:33:11;19.80;;;17.67;;
11222;SDS011;5668;52.012;8.724;2024-03-08T11:35:38;19.27;;;17.00;;
11222;SDS011;5668;52.012;8.724;2024-03-08T11:38:10;21.77;;;17.50;;
11222;SDS011;5668;52.012;8.724;2024-03-08T11:40:40;22.20;;;17.50;;
11222;SDS011;5668;52.012;8.724;2024-03-08T11:43:08;19.17;;;16.30;;
11222;SDS011;5668;52.012;8.724;2024-03-08T11:45:35;19.07;;;16.90;;
11222;SDS011;5668;52.012;8.724;2024-03-08T11:48:03;20.13;;;17.53;;
11222;SDS011;5668;52.012;8.724;2024-03-08T11:50:31;20.97;;;17.53;;
11222;SDS011;5668;52.012;8.724;2024-03-08T11:53:02;19.13;;;16.87;;
11222;SDS011;5668;52.012;8.724;2024-03-08T11:55:30;18.97;;;16.23;;
11222;SDS011;5668;52.012;8.724;2024-03-08T11:58:05;20.97;;;17.03;;
11222;SDS011;5668;52.012;8.724;2024-03-08T12:00:35;21.47;;;16.70;;
11222;SDS011;5668;52.012;8.724;2024-03-08T12:03:06;18.00;;;16.13;;
11222;SDS011;5668;52.012;8.724;2024-03-08T12:05:35;17.33;;;15.40;;
11222;SDS011;5668;52.012;8.724;2024-03-08T12:08:04;18.83;;;16.17;;
11222;SDS011;5668;52.012;8.724;2024-03-08T12:10:34;17.03;;;15.17;;
11222;SDS011;5668;52.012;8.724;2024-03-08T12:13:02;19.47;;;15.67;;
11222;SDS011;5668;52.012;8.724;2024-03-08T12:15:37;19.70;;;15.70;;
11222;SDS011;5668;52.012;8.724;2024-03-08T12:18:06;17.03;;;14.87;;
11222;SDS011;5668;52.012;8.724;2024-03-08T12:20:37;16.73;;;14.40;;
11222;SDS011;5668;52.012;8.724;2024-03-08T12:23:13;16.67;;;14.33;;
11222;SDS011;5668;52.012;8.724;2024-03-08T12:25:41;16.30;;;14.23;;
11222;SDS011;5668;52.012;8.724;2024-03-08T12:28:11;17.60;;;15.60;;
11222;SDS011;5668;52.012;8.724;2024-03-08T12:30:45;17.63;;;14.33;;
11222;SDS011;5668;52.012;8.724;2024-03-08T12:33:14;16.37;;;14.30;;
11222;SDS011;5668;52.012;8.724;2024-03-08T12:35:49;16.83;;;13.87;;
11222;SDS011;5668;52.012;8.724;2024-03-08T12:38:20;17.30;;;14.47;;
11222;SDS011;5668;52.012;8.724;2024-03-08T12:40:50;15.63;;;14.03;;
11222;SDS011;5668;52.012;8.724;2024-03-08T12:43:23;15.83;;;14.13;;
11222;SDS011;5668;52.012;8.724;2024-03-08T12:45:50;16.10;;;13.67;;
11222;SDS011;5668;52.012;8.724;2024-03-08T12:48:18;16.57;;;14.87;;
11222;SDS011;5668;52.012;8.724;2024-03-08T12:50:45;17.50;;;15.60;;
11222;SDS011;5668;52.012;8.724;2024-03-08T12:53:16;20.33;;;17.07;;
11222;SDS011;5668;52.012;8.724;2024-03-08T12:55:43;19.87;;;17.70;;
11222;SDS011;5668;52.012;8.724;2024-03-08T12:58:10;21.70;;;18.63;;
11222;SDS011;5668;52.012;8.724;2024-03-08T13:00:39;19.07;;;17.07;;
11222;SDS011;5668;52.012;8.724;2024-03-08T13:03:08;21.40;;;18.17;;
11222;SDS011;5668;52.012;8.724;2024-03-08T13:05:36;19.50;;;17.50;;
11222;SDS011;5668;52.012;8.724;2024-03-08T13:08:05;21.27;;;18.93;;
11222;SDS011;5668;52.012;8.724;2024-03-08T13:10:37;20.63;;;17.37;;
11222;SDS011;5668;52.012;8.724;2024-03-08T13:13:04;21.00;;;18.23;;
11222;SDS011;5668;52.012;8.724;2024-03-08T13:15:32;20.90;;;18.23;;
11222;SDS011;5668;52.012;8.724;2024-03-08T13:18:00;20.67;;;18.50;;
11222;SDS011;5668;52.012;8.724;2024-03-08T13:20:28;20.50;;;18.27;;
11222;SDS011;5668;52.012;8.724;2024-03-08T13:22:55;20.77;;;18.57;;
11222;SDS011;5668;52.012;8.724;2024-03-08T13:25:25;21.20;;;19.00;;
11222;SDS011;5668;52.012;8.724;2024-03-08T13:27:53;20.40;;;18.20;;
11222;SDS011;5668;52.012;8.724;2024-03-08T13:30:22;20.77;;;18.57;;
11222;SDS011;5668;52.012;8.724;2024-03-08T13:32:51;20.20;;;18.00;;
11222;SDS011;5668;52.012;8.724;2024-03-08T13:35:20;21.20;;;18.10;;
11222;SDS011;5668;52.012;8.724;2024-03-08T13:37:49;18.50;;;16.60;;
11222;SDS011;5668;52.012;8.724;2024-03-08T13:40:18;18.37;;;16.43;;
11222;SDS011;5668;52.012;8.724;2024-03-08T13:42:47;20.00;;;17.90;;
11222;SDS011;5668;52.012;8.724;2024-03-08T13:45:15;19.43;;;17.50;;
11222;SDS011;5668;52.012;8.724;2024-03-08T13:47:47;19.83;;;17.57;;
11222;SDS011;5668;52.012;8.724;2024-03-08T13:50:16;20.07;;;17.90;;
11222;SDS011;5668;52.012;8.724;2024-03-08T13:52:48;19.27;;;17.10;;
11222;SDS011;5668;52.012;8.724;2024-03-08T13:55:16;19.53;;;17.47;;
11222;SDS011;5668;52.012;8.724;2024-03-08T13:57:42;22.37;;;18.73;;
11222;SDS011;5668;52.012;8.724;2024-03-08T14:00:10;19.30;;;17.13;;
11222;SDS011;5668;52.012;8.724;2024-03-08T14:02:39;20.67;;;18.17;;
11222;SDS011;5668;52.012;8.724;2024-03-08T14:05:07;19.67;;;17.53;;
11222;SDS011;5668;52.012;8.724;2024-03-08T14:07:34;20.77;;;18.00;;
11222;SDS011;5668;52.012;8.724;2024-03-08T14:10:03;19.53;;;17.40;;
11222;SDS011;5668;52.012;8.724;2024-03-08T14:12:32;19.93;;;17.23;;
11222;SDS011;5668;52.012;8.724;2024-03-08T14:15:00;19.17;;;17.03;;
11222;SDS011;5668;52.012;8.724;2024-03-08T14:17:28;19.50;;;17.50;;
11222;SDS011;5668;52.012;8.724;2024-03-08T14:19:56;18.00;;;16.10;;
11222;SDS011;5668;52.012;8.724;2024-03-08T14:22:24;17.43;;;15.57;;
11222;SDS011;5668;52.012;8.724;2024-03-08T14:24:51;20.30;;;15.73;;
11222;SDS011;5668;52.012;8.724;2024-03-08T14:27:22;19.23;;;16.67;;
11222;SDS011;5668;52.012;8.724;2024-03-08T14:29:49;20.27;;;17.17;;
11222;SDS011;5668;52.012;8.724;2024-03-08T14:32:16;18.53;;;16.10;;
11222;SDS011;5668;52.012;8.724;2024-03-08T14:34:44;17.23;;;14.80;;
11222;SDS011;5668;52.012;8.724;2024-03-08T14:37:12;15.67;;;13.83;;
11222;SDS011;5668;52.012;8.724;2024-03-08T14:39:40;15.97;;;13.50;;
11222;SDS011;5668;52.012;8.724;2024-03-08T14:42:07;15.70;;;13.13;;
11222;SDS011;5668;52.012;8.724;2024-03-08T14:44:39;15.93;;;13.70;;